Time;durP1;ratioP1;P1;durP2;ratioP2;P2;SDS_P1;SDS_P2;PMS_P1;PMS_P2;Temp;Humidity;BMP_temperature;BMP_pressure;BME280_temperature;BME280_humidity;BME280_pressure;Samples;Min_cycle;Max_cycle;Signal;HPM_P1;HPM_P2
2022/01/15 00:05:22;;;;;;;18.03;5.90;;;;;;;2.86;75.64;100974.67;740708;1154;113685;-76
2022/01/15 00:20:26;;;;;;;15.30;4.93;;;;;;;2.85;76.83;100988.53;739987;1155;113631;-76
2022/01/15 00:35:28;;;;;;;11.73;4.08;;;;;;;2.76;77.57;100989.77;740029;1155;113558;-76
2022/01/15 00:50:31;;;;;;;13.13;3.48;;;;;;;2.71;77.95;100987.40;739746;1154;113535;-76
2022/01/15 01:05:33;;;;;;;12.63;3.37;;;;;;;2.66;78.73;101007.48;740052;1153;113728;-75
2022/01/15 01:21:01;;;;;;;10.15;2.80;;;;;;;2.46;79.82;101004.00;740366;1155;113955;-75
2022/01/15 01:36:13;;;;;;;11.55;4.10;;;;;;;2.41;80.05;100989.56;739977;1154;113926;-76
2022/01/15 01:51:26;;;;;;;10.95;3.23;;;;;;;2.25;81.56;100995.39;739692;1154;113633;-76
2022/01/15 02:06:36;;;;;;;12.88;3.75;;;;;;;2.22;82.37;100973.95;740290;1155;114323;-76
2022/01/15 02:36:53;;;;;;;9.60;3.40;;;;;;;2.23;83.29;100986.86;739393;1157;113672;-76
2022/01/15 02:51:56;;;;;;;5.55;2.20;;;;;;;2.09;83.22;100974.48;740086;1154;113252;-77
2022/01/15 03:06:58;;;;;;;13.60;3.10;;;;;;;2.10;84.06;100954.59;740196;1155;113636;-75
2022/01/15 03:22:02;;;;;;;11.50;2.35;;;;;;;2.11;84.08;100993.39;741625;1155;113529;-77
2022/01/15 03:37:05;;;;;;;12.75;2.85;;;;;;;2.09;84.58;100986.59;739466;1155;114962;-76
2022/01/15 03:52:09;;;;;;;6.03;2.50;;;;;;;1.96;85.49;101001.78;739571;1153;113641;-76
2022/01/15 04:07:11;;;;;;;8.57;2.57;;;;;;;1.99;85.21;101009.41;739547;1157;114689;-75
2022/01/15 04:22:13;;;;;;;12.63;3.40;;;;;;;1.92;86.01;101033.86;739877;1155;113523;-77
2022/01/15 04:37:20;;;;;;;12.07;3.27;;;;;;;1.89;86.21;101037.41;739861;1155;113770;-76
2022/01/15 04:52:23;;;;;;;18.53;5.55;;;;;;;1.81;86.79;101065.34;740202;1155;113642;-76
2022/01/15 05:07:25;;;;;;;11.28;7.35;;;;;;;1.78;87.35;101075.79;739885;1155;113480;-75
2022/01/15 05:22:27;;;;;;;15.45;4.88;;;;;;;1.79;88.03;101070.55;740312;1154;113776;-75
2022/01/15 05:37:30;;;;;;;10.50;3.98;;;;;;;1.76;88.04;101081.03;740723;1155;113481;-77
2022/01/15 05:52:33;;;;;;;21.53;5.93;;;;;;;1.71;88.61;101085.53;740783;1154;113457;-75
2022/01/15 06:07:35;;;;;;;20.27;5.17;;;;;;;1.63;88.88;101084.98;740118;1154;113604;-76
2022/01/15 06:22:38;;;;;;;14.33;4.50;;;;;;;1.58;90.03;101100.67;740306;1155;114631;-75
2022/01/15 06:37:41;;;;;;;13.13;4.83;;;;;;;1.60;90.01;101134.27;740769;1154;113642;-75
2022/01/15 06:52:43;;;;;;;18.23;5.90;;;;;;;1.56;90.33;101117.14;741106;1155;114404;-75
2022/01/15 07:07:46;;;;;;;543.28;167.85;;;;;;;1.60;90.45;101139.44;739758;1156;113595;-75
2022/01/15 07:22:48;;;;;;;92.55;42.63;;;;;;;1.58;91.19;101133.46;741479;1162;115080;-75
2022/01/15 07:37:50;;;;;;;32.15;14.53;;;;;;;1.61;91.79;101151.45;739972;1155;114760;-76
2022/01/15 07:52:54;;;;;;;25.60;10.05;;;;;;;1.77;92.88;101155.17;740354;1157;113849;-74
2022/01/15 08:07:56;;;;;;;70.85;35.75;;;;;;;2.08;92.56;101177.28;741246;1162;115400;-83
2022/01/15 08:22:58;;;;;;;222.03;80.55;;;;;;;2.83;93.16;101177.80;741728;1162;115152;-80
2022/01/15 11:08:28;;;;;;;86.40;38.10;;;;;;;7.95;73.10;101276.73;715915;1192;23170;-77
2022/01/15 11:23:32;;;;;;;25.65;10.25;;;;;;;8.31;71.58;101260.55;715992;1199;23124;-76
2022/01/15 11:38:46;;;;;;;29.63;11.05;;;;;;;8.20;70.28;101257.75;716185;1199;26071;-77
2022/01/15 11:53:51;;;;;;;79.40;34.23;;;;;;;8.13;69.89;101267.75;715195;1202;113686;-76
2022/01/15 12:08:54;;;;;;;47.53;21.37;;;;;;;7.97;69.06;101277.45;714348;1199;113404;-77
2022/01/15 12:23:56;;;;;;;45.10;19.70;;;;;;;8.02;68.99;101282.42;714441;1199;113498;-78
2022/01/15 12:38:59;;;;;;;54.17;21.20;;;;;;;8.36;68.17;101296.02;714485;1200;24753;-71
2022/01/15 12:54:02;;;;;;;116.05;58.00;;;;;;;8.14;66.68;101295.58;714813;1200;114210;-73
2022/01/15 13:09:04;;;;;;;48.80;21.25;;;;;;;7.51;67.96;101307.20;714466;1200;114940;-75
2022/01/15 13:24:11;;;;;;;26.58;10.93;;;;;;;9.26;65.99;101288.52;714501;1167;113378;-74
2022/01/15 13:39:16;;;;;;;582.90;223.30;;;;;;;12.65;63.24;101288.27;715241;1174;115668;-72
2022/01/15 13:54:18;;;;;;;518.75;148.70;;;;;;;12.13;61.03;101307.26;715135;1174;116217;-77
2022/01/15 14:09:21;;;;;;;390.15;136.20;;;;;;;8.30;62.22;101305.06;714480;1174;115938;-77
2022/01/15 14:24:27;;;;;;;195.28;75.63;;;;;;;6.82;64.16;101315.45;714582;1174;114986;-76
2022/01/15 14:39:30;;;;;;;174.88;59.08;;;;;;;6.20;66.59;101319.72;714688;1174;115470;-75
2022/01/15 14:54:33;;;;;;;114.07;33.43;;;;;;;5.86;67.51;101324.05;714324;1175;115627;-77
2022/01/15 15:09:35;;;;;;;179.10;54.60;;;;;;;5.07;69.53;101301.94;715097;1174;114192;-76
2022/01/15 15:24:38;;;;;;;104.43;35.38;;;;;;;4.43;70.29;101310.11;714800;1166;114280;-73
2022/01/15 15:39:41;;;;;;;93.20;30.43;;;;;;;4.14;72.05;101308.84;714432;1174;114709;-75
2022/01/15 15:54:43;;;;;;;422.20;101.57;;;;;;;3.75;73.58;101318.32;714466;1174;115384;-76
2022/01/15 16:09:46;;;;;;;317.60;91.90;;;;;;;3.33;74.49;101327.00;714204;1174;114383;-75
2022/01/15 16:24:48;;;;;;;434.47;127.93;;;;;;;3.03;75.13;101329.92;714424;1174;114945;-79
2022/01/15 16:39:51;;;;;;;561.33;206.20;;;;;;;2.66;75.21;101326.17;714423;1174;115577;-80
2022/01/15 16:54:54;;;;;;;327.17;109.03;;;;;;;2.46;76.45;101309.64;714262;1174;115580;-79
2022/01/15 17:09:56;;;;;;;374.95;123.85;;;;;;;2.22;77.20;101310.55;714191;1174;115850;-78
2022/01/15 17:24:59;;;;;;;199.85;70.68;;;;;;;2.02;78.05;101306.96;714498;1174;115291;-76
2022/01/15 17:40:01;;;;;;;187.45;66.98;;;;;;;2.02;80.16;101308.69;714297;1174;113974;-73
2022/01/15 17:55:04;;;;;;;282.28;86.20;;;;;;;1.96;80.94;101308.00;716352;1174;114311;-87
2022/01/15 18:10:07;;;;;;;130.13;44.35;;;;;;;1.98;82.05;101310.56;716656;1174;114935;-78
2022/01/15 18:25:10;;;;;;;98.65;35.60;;;;;;;1.90;83.13;101305.66;714380;1174;116237;-80
2022/01/15 18:40:14;;;;;;;96.98;38.73;;;;;;;1.91;83.73;101322.02;716714;1174;115357;-79
2022/01/15 18:55:18;;;;;;;86.38;33.33;;;;;;;1.82;84.65;101349.91;714620;1174;114036;-79
2022/01/15 19:10:21;;;;;;;59.60;22.20;;;;;;;1.77;84.61;101294.02;716505;1174;114795;-80
2022/01/15 19:25:27;;;;;;;59.90;23.25;;;;;;;1.78;86.05;101319.00;714880;1174;115678;-79
2022/01/15 19:40:32;;;;;;;44.65;16.08;;;;;;;1.72;86.24;101242.45;714656;1174;114502;-79
2022/01/15 19:55:36;;;;;;;72.57;30.17;;;;;;;1.75;85.96;101301.84;714413;1173;115780;-77
2022/01/15 20:10:39;;;;;;;41.75;17.15;;;;;;;1.64;86.42;101278.94;715185;1174;114763;-78
2022/01/15 20:25:42;;;;;;;65.73;21.20;;;;;;;1.40;87.04;101270.30;715267;1174;114749;-79
2022/01/15 20:40:45;;;;;;;94.07;33.40;;;;;;;1.21;87.35;101243.37;714682;1174;113983;-82
2022/01/15 20:55:48;;;;;;;117.63;36.15;;;;;;;1.08;87.62;101292.89;718046;1174;113949;-87
2022/01/15 21:10:54;;;;;;;;;;;;;;;0.98;88.41;101294.08;722499;1174;114450;-85
2022/01/15 21:26:03;;;;;;;96.50;30.27;;;;;;;0.96;89.32;101280.34;720709;1174;101040;-86
2022/01/15 21:41:07;;;;;;;84.20;29.40;;;;;;;0.91;89.88;101253.80;718526;1174;114897;-88
2022/01/15 21:56:10;;;;;;;133.70;42.13;;;;;;;0.84;90.49;101271.25;718791;1174;114808;-86
2022/01/15 22:11:37;;;;;;;156.50;56.63;;;;;;;0.91;91.64;101261.56;719836;1174;114376;-87
2022/01/15 22:26:41;;;;;;;109.53;42.33;;;;;;;1.04;93.59;101270.59;717683;1174;114487;-85
2022/01/15 22:41:46;;;;;;;;;;;;;;;1.05;93.55;101264.55;717192;1174;115646;-87
2022/01/15 22:56:48;;;;;;;56.57;21.73;;;;;;;1.06;94.75;101271.41;716996;1173;101251;-86
2022/01/15 23:12:00;;;;;;;57.70;23.43;;;;;;;0.83;95.67;101274.72;717340;1174;115038;-81
2022/01/15 23:27:03;;;;;;;57.38;22.55;;;;;;;0.80;96.72;101265.33;714784;1174;115209;-80
2022/01/15 23:42:05;;;;;;;60.58;21.40;;;;;;;0.92;96.16;101242.58;714580;1174;114591;-79
